Time;durP1;ratioP1;P1;durP2;ratioP2;P2;SDS_P1;SDS_P2;PMS_P1;PMS_P2;Temp;Humidity;BMP_temperature;BMP_pressure;BME280_temperature;BME280_humidity;BME280_pressure;Samples;Min_cycle;Max_cycle;Signal;HPM_P1;HPM_P2
2020/12/08 00:01:08;;;;;;;23.75;11.80;;;;;;;;;;10250912;28;20066;-66
2020/12/08 00:06:06;;;;;;;24.13;12.10;;;;;;;;;;10228835;28;20072;-63
2020/12/08 00:11:03;;;;;;;27.43;12.13;;;;;;;;;;10201960;28;20530;-65
2020/12/08 00:16:03;;;;;;;13.00;6.50;;;;;;;;;;10227154;28;20050;-64
2020/12/08 00:21:00;;;;;;;33.22;15.23;;;;;;;;;;10207337;28;20583;-66
2020/12/08 00:25:58;;;;;;;27.00;9.57;;;;;;;;;;10241940;28;20460;-65
2020/12/08 00:30:55;;;;;;;28.73;13.10;;;;;;;;;;10240096;28;20041;-65
2020/12/08 00:35:53;;;;;;;33.13;14.27;;;;;;;;;;10201211;28;20040;-64
2020/12/08 00:40:51;;;;;;;30.40;13.63;;;;;;;;;;10228092;28;20030;-66
2020/12/08 00:45:48;;;;;;;14.17;8.00;;;;;;;;;;10249649;28;20076;-66
2020/12/08 00:50:46;;;;;;;22.40;10.23;;;;;;;;;;10231347;28;20432;-65
2020/12/08 00:55:44;;;;;;;26.50;10.27;;;;;;;;;;10228347;28;20408;-65
2020/12/08 01:00:42;;;;;;;33.80;14.93;;;;;;;;;;10244544;28;20408;-66
2020/12/08 01:05:40;;;;;;;23.30;10.40;;;;;;;;;;10203601;28;20096;-65
2020/12/08 01:10:37;;;;;;;26.73;11.82;;;;;;;;;;10244332;28;20099;-66
2020/12/08 01:15:35;;;;;;;35.07;14.77;;;;;;;;;;10225144;28;20057;-65
2020/12/08 01:20:32;;;;;;;12.97;7.37;;;;;;;;;;10227098;28;20034;-65
2020/12/08 01:25:31;;;;;;;35.23;15.13;;;;;;;;;;10235649;28;20543;-66
2020/12/08 01:30:29;;;;;;;13.05;6.55;;;;;;;;;;10252442;28;20045;-66
2020/12/08 01:35:27;;;;;;;14.70;8.13;;;;;;;;;;10204778;28;20051;-66
2020/12/08 01:40:30;;;;;;;24.40;10.60;;;;;;;;;;10216756;28;20046;-66
2020/12/08 01:45:28;;;;;;;31.70;13.02;;;;;;;;;;10234739;28;20040;-65
2020/12/08 01:50:26;;;;;;;29.97;12.97;;;;;;;;;;10244127;28;20046;-64
2020/12/08 01:55:24;;;;;;;18.75;9.80;;;;;;;;;;10242569;28;20034;-65
2020/12/08 02:00:22;;;;;;;15.45;8.65;;;;;;;;;;10211843;28;20150;-65
2020/12/08 02:05:19;;;;;;;18.40;7.97;;;;;;;;;;10245294;28;20506;-65
2020/12/08 02:10:18;;;;;;;21.98;10.38;;;;;;;;;;10207514;28;20038;-66
2020/12/08 02:15:16;;;;;;;29.27;10.27;;;;;;;;;;10220408;28;20042;-66
2020/12/08 02:20:16;;;;;;;29.75;12.43;;;;;;;;;;10216677;28;20053;-64
2020/12/08 02:25:15;;;;;;;15.88;8.50;;;;;;;;;;10212599;28;20116;-64
2020/12/08 02:30:13;;;;;;;26.50;11.52;;;;;;;;;;10223228;28;20041;-62
2020/12/08 02:35:11;;;;;;;24.57;10.93;;;;;;;;;;10233275;28;20037;-62
2020/12/08 02:40:08;;;;;;;22.67;11.13;;;;;;;;;;10234157;28;20474;-64
2020/12/08 02:45:09;;;;;;;17.92;7.35;;;;;;;;;;10211865;28;20044;-65
2020/12/08 02:50:07;;;;;;;20.27;7.97;;;;;;;;;;10217517;28;21646;-64
2020/12/08 02:55:06;;;;;;;21.55;9.52;;;;;;;;;;10218947;28;20510;-64
2020/12/08 03:00:09;;;;;;;10.60;6.75;;;;;;;;;;10222459;28;20034;-63
2020/12/08 03:05:07;;;;;;;16.48;7.40;;;;;;;;;;10225631;28;20090;-64
2020/12/08 03:10:06;;;;;;;13.93;8.13;;;;;;;;;;10210618;28;20424;-64
2020/12/08 03:15:07;;;;;;;19.98;8.75;;;;;;;;;;10214814;28;20518;-64
2020/12/08 03:20:11;;;;;;;14.23;6.35;;;;;;;;;;10221606;28;20077;-63
2020/12/08 03:25:15;;;;;;;20.80;7.60;;;;;;;;;;10221590;28;20819;-64
2020/12/08 03:30:14;;;;;;;17.40;8.13;;;;;;;;;;10218703;28;20133;-63
2020/12/08 03:35:14;;;;;;;4.78;3.45;;;;;;;;;;10222214;28;20038;-63
2020/12/08 03:40:12;;;;;;;10.70;5.93;;;;;;;;;;10221388;28;20427;-64
2020/12/08 03:45:10;;;;;;;14.30;8.00;;;;;;;;;;10218498;28;20027;-63
2020/12/08 03:50:30;;;;;;;10.23;5.13;;;;;;;;;;10234467;28;20038;-64
2020/12/08 03:55:28;;;;;;;5.68;3.50;;;;;;;;;;10218231;28;20601;-64
2020/12/08 04:00:27;;;;;;;5.82;4.50;;;;;;;;;;10232637;28;20033;-66
2020/12/08 04:05:26;;;;;;;16.88;6.60;;;;;;;;;;10228515;28;20195;-66
2020/12/08 04:10:23;;;;;;;15.10;6.50;;;;;;;;;;10218901;28;20117;-64
2020/12/08 04:15:23;;;;;;;11.05;6.10;;;;;;;;;;10207616;28;20034;-65
2020/12/08 04:20:20;;;;;;;11.70;6.53;;;;;;;;;;10201191;28;20404;-67
2020/12/08 04:25:18;;;;;;;25.03;11.17;;;;;;;;;;10202113;28;20110;-65
2020/12/08 04:30:15;;;;;;;15.43;7.37;;;;;;;;;;10208023;28;20839;-65
2020/12/08 04:35:17;;;;;;;9.75;5.57;;;;;;;;;;10232805;28;20249;-64
2020/12/08 04:40:14;;;;;;;17.10;8.33;;;;;;;;;;10217186;28;20121;-60
2020/12/08 04:45:12;;;;;;;19.30;8.50;;;;;;;;;;10228425;28;20042;-64
2020/12/08 04:50:09;;;;;;;15.07;8.17;;;;;;;;;;10223304;28;20042;-64
2020/12/08 04:55:07;;;;;;;18.17;7.77;;;;;;;;;;10227197;28;20113;-65
2020/12/08 05:00:04;;;;;;;20.30;9.13;;;;;;;;;;10211716;28;20056;-64
2020/12/08 05:05:02;;;;;;;19.20;7.90;;;;;;;;;;10235503;28;20077;-65
2020/12/08 05:09:59;;;;;;;18.07;9.27;;;;;;;;;;10235308;28;20037;-65
2020/12/08 05:14:56;;;;;;;18.67;6.83;;;;;;;;;;10240584;28;20129;-66
2020/12/08 05:20:01;;;;;;;15.13;7.20;;;;;;;;;;10235814;28;20033;-66
2020/12/08 05:25:08;;;;;;;15.60;7.47;;;;;;;;;;10204107;28;20173;-67
2020/12/08 05:30:08;;;;;;;13.57;7.57;;;;;;;;;;10229628;28;21283;-65
2020/12/08 05:35:07;;;;;;;18.35;8.25;;;;;;;;;;10218715;28;20053;-65
2020/12/08 05:40:06;;;;;;;14.05;7.28;;;;;;;;;;10233270;28;20099;-66
2020/12/08 05:45:05;;;;;;;13.13;6.10;;;;;;;;;;10224626;28;20041;-66
2020/12/08 05:50:02;;;;;;;16.52;8.50;;;;;;;;;;10234923;28;20057;-64
2020/12/08 05:55:10;;;;;;;17.33;8.83;;;;;;;;;;10237176;28;20057;-66
2020/12/08 06:00:18;;;;;;;16.75;8.05;;;;;;;;;;10216542;28;20046;-66
2020/12/08 06:05:25;;;;;;;21.85;8.35;;;;;;;;;;10243397;28;20144;-66
2020/12/08 06:10:23;;;;;;;15.60;8.20;;;;;;;;;;10241605;28;20068;-64
2020/12/08 06:15:27;;;;;;;21.07;7.70;;;;;;;;;;10202594;28;20049;-65
2020/12/08 06:20:25;;;;;;;14.02;8.38;;;;;;;;;;10225348;28;20068;-65
2020/12/08 06:25:30;;;;;;;16.52;8.43;;;;;;;;;;10213184;28;20092;-66
2020/12/08 06:30:27;;;;;;;20.23;9.47;;;;;;;;;;10229482;28;20087;-66
2020/12/08 06:35:30;;;;;;;21.80;10.73;;;;;;;;;;10246681;28;20081;-66
2020/12/08 06:40:28;;;;;;;24.85;10.25;;;;;;;;;;10227398;28;20039;-67
2020/12/08 06:45:25;;;;;;;21.67;9.63;;;;;;;;;;10227694;28;20039;-66
2020/12/08 06:50:27;;;;;;;23.13;9.30;;;;;;;;;;10236455;28;20130;-66
2020/12/08 06:55:25;;;;;;;17.92;9.13;;;;;;;;;;10235088;28;20514;-66
2020/12/08 07:00:25;;;;;;;17.33;7.07;;;;;;;;;;10217764;28;20170;-66
2020/12/08 07:05:25;;;;;;;12.73;6.90;;;;;;;;;;10220741;28;20033;-66
2020/12/08 07:10:26;;;;;;;16.55;8.50;;;;;;;;;;10215788;28;20511;-65
2020/12/08 07:15:25;;;;;;;18.20;8.02;;;;;;;;;;10208824;28;20034;-67
2020/12/08 07:20:23;;;;;;;11.95;6.72;;;;;;;;;;10226173;28;20518;-66
2020/12/08 07:25:21;;;;;;;8.60;4.97;;;;;;;;;;10218272;28;20069;-67
2020/12/08 07:30:19;;;;;;;;;;;;;;;;;;10209512;28;20050;-67
2020/12/08 07:35:29;;;;;;;13.43;5.80;;;;;;;;;;10226161;28;19913;-66
2020/12/08 07:40:36;;;;;;;12.43;5.88;;;;;;;;;;10217552;28;20144;-67
2020/12/08 07:45:40;;;;;;;11.73;6.10;;;;;;;;;;10221064;28;20405;-66
2020/12/08 07:50:37;;;;;;;18.70;9.38;;;;;;;;;;10229467;28;20463;-66
2020/12/08 07:55:44;;;;;;;8.07;5.20;;;;;;;;;;10221719;28;20034;-66
2020/12/08 08:00:41;;;;;;;14.13;7.35;;;;;;;;;;10209952;28;20041;-69
2020/12/08 08:05:39;;;;;;;12.07;6.37;;;;;;;;;;10204366;28;20035;-68
2020/12/08 08:10:36;;;;;;;6.47;4.77;;;;;;;;;;10208359;28;20104;-68
2020/12/08 08:15:33;;;;;;;8.80;4.80;;;;;;;;;;10224218;28;20040;-68
2020/12/08 08:20:31;;;;;;;9.87;5.70;;;;;;;;;;10225127;28;20034;-66
2020/12/08 08:25:29;;;;;;;12.07;7.03;;;;;;;;;;10169075;28;20571;-67
2020/12/08 08:30:26;;;;;;;12.30;7.30;;;;;;;;;;10227392;28;20597;-69
2020/12/08 08:35:27;;;;;;;10.70;5.60;;;;;;;;;;10213935;28;20061;-68
2020/12/08 08:40:24;;;;;;;12.43;6.22;;;;;;;;;;10225465;28;20453;-68
2020/12/08 08:45:22;;;;;;;13.57;7.20;;;;;;;;;;10225398;28;20045;-67
2020/12/08 08:50:19;;;;;;;11.50;4.20;;;;;;;;;;10231848;28;20038;-66
2020/12/08 08:55:17;;;;;;;14.47;6.93;;;;;;;;;;10243301;28;20047;-65
2020/12/08 09:00:14;;;;;;;15.07;8.83;;;;;;;;;;10245226;28;20045;-66
2020/12/08 09:05:14;;;;;;;9.33;4.80;;;;;;;;;;10223826;28;20105;-66
2020/12/08 09:10:11;;;;;;;14.25;7.18;;;;;;;;;;10230462;28;20125;-65
2020/12/08 09:15:09;;;;;;;9.93;4.70;;;;;;;;;;10196036;28;20145;-65
2020/12/08 09:20:07;;;;;;;6.40;4.53;;;;;;;;;;10222284;28;20050;-67
2020/12/08 09:25:04;;;;;;;15.43;5.83;;;;;;;;;;10228024;28;20072;-67
2020/12/08 09:30:03;;;;;;;15.23;7.13;;;;;;;;;;10221747;28;20041;-66
2020/12/08 09:35:00;;;;;;;;;;;;;;;;;;10230970;28;20110;-66
2020/12/08 09:39:58;;;;;;;10.50;6.85;;;;;;;;;;10230046;28;20008;-66
2020/12/08 09:44:56;;;;;;;6.67;4.13;;;;;;;;;;10219458;28;20037;-66
2020/12/08 09:49:54;;;;;;;;;;;;;;;;;;10242746;28;20041;-67
2020/12/08 09:54:51;;;;;;;10.05;5.38;;;;;;;;;;10245407;28;19913;-66
2020/12/08 09:59:48;;;;;;;10.37;5.53;;;;;;;;;;10229301;28;20072;-66
2020/12/08 10:04:46;;;;;;;12.13;5.67;;;;;;;;;;10224471;28;20033;-65
2020/12/08 10:09:44;;;;;;;8.10;5.60;;;;;;;;;;10205639;28;20048;-67
2020/12/08 10:14:43;;;;;;;12.13;7.43;;;;;;;;;;10229502;28;20042;-65
2020/12/08 10:19:40;;;;;;;;;;;;;;;;;;10219274;28;20076;-66
2020/12/08 10:24:38;;;;;;;5.75;3.40;;;;;;;;;;10226868;28;19917;-66
2020/12/08 10:29:35;;;;;;;9.07;5.90;;;;;;;;;;10224053;28;20042;-66
2020/12/08 10:34:33;;;;;;;6.80;4.13;;;;;;;;;;10227583;28;20133;-67
2020/12/08 10:39:30;;;;;;;11.53;6.03;;;;;;;;;;10225605;28;20516;-67
2020/12/08 10:44:28;;;;;;;13.00;6.40;;;;;;;;;;10215049;28;20026;-66
2020/12/08 10:49:25;;;;;;;10.47;6.13;;;;;;;;;;10231762;28;20038;-67
2020/12/08 10:54:25;;;;;;;8.17;5.57;;;;;;;;;;10224443;28;20049;-65
2020/12/08 10:59:23;;;;;;;10.57;6.53;;;;;;;;;;10212410;28;20038;-65
2020/12/08 11:04:20;;;;;;;9.40;3.97;;;;;;;;;;10211945;28;20030;-65
2020/12/08 11:09:17;;;;;;;8.17;3.93;;;;;;;;;;10248279;28;20068;-67
2020/12/08 11:14:15;;;;;;;5.70;3.57;;;;;;;;;;10222310;28;20057;-66
2020/12/08 11:19:12;;;;;;;6.50;4.17;;;;;;;;;;10199385;28;20053;-66
2020/12/08 11:24:11;;;;;;;4.50;3.20;;;;;;;;;;10220467;28;20689;-66
2020/12/08 11:29:08;;;;;;;;;;;;;;;;;;10229368;28;20144;-67
2020/12/08 11:34:05;;;;;;;8.45;5.00;;;;;;;;;;10233423;28;20406;-67
2020/12/08 11:39:03;;;;;;;11.97;6.87;;;;;;;;;;10176058;28;20628;-65
2020/12/08 11:44:00;;;;;;;5.37;3.57;;;;;;;;;;10225525;28;20038;-66
2020/12/08 11:48:58;;;;;;;10.83;6.83;;;;;;;;;;10230885;28;20038;-65
2020/12/08 11:53:58;;;;;;;11.07;6.63;;;;;;;;;;10231711;28;20042;-65
2020/12/08 11:58:56;;;;;;;11.00;6.40;;;;;;;;;;10234175;28;20038;-66
2020/12/08 12:03:53;;;;;;;8.38;6.07;;;;;;;;;;10209820;28;20523;-65
2020/12/08 12:08:50;;;;;;;10.17;6.87;;;;;;;;;;10219098;28;20125;-64
2020/12/08 12:13:48;;;;;;;9.73;6.77;;;;;;;;;;10211190;28;20031;-64
2020/12/08 12:18:45;;;;;;;10.63;5.67;;;;;;;;;;10228834;28;20038;-63
2020/12/08 12:23:43;;;;;;;13.23;7.57;;;;;;;;;;10235170;28;20026;-64
2020/12/08 12:28:40;;;;;;;11.60;7.37;;;;;;;;;;10253052;28;20381;-64
2020/12/08 12:33:38;;;;;;;14.00;8.10;;;;;;;;;;10223872;28;20049;-63
2020/12/08 12:38:35;;;;;;;13.67;8.23;;;;;;;;;;10243760;28;20496;-66
2020/12/08 12:43:32;;;;;;;14.80;7.83;;;;;;;;;;10220845;28;20026;-65
2020/12/08 12:48:30;;;;;;;5.67;3.77;;;;;;;;;;10240008;28;20026;-67
2020/12/08 12:53:27;;;;;;;7.47;4.67;;;;;;;;;;10251998;28;20034;-67
2020/12/08 12:58:24;;;;;;;8.63;4.60;;;;;;;;;;10240145;28;20385;-67
2020/12/08 13:03:22;;;;;;;8.70;5.60;;;;;;;;;;10210320;28;20041;-65
2020/12/08 13:08:19;;;;;;;6.43;2.60;;;;;;;;;;10243185;28;20046;-66
2020/12/08 13:13:17;;;;;;;9.53;4.53;;;;;;;;;;10219186;28;20042;-66
2020/12/08 13:18:14;;;;;;;9.43;4.80;;;;;;;;;;10224666;28;20045;-66
2020/12/08 13:23:12;;;;;;;9.33;5.93;;;;;;;;;;10222703;28;20104;-68
2020/12/08 13:28:09;;;;;;;13.77;8.87;;;;;;;;;;10225586;28;20034;-65
2020/12/08 13:33:06;;;;;;;13.47;8.00;;;;;;;;;;10234545;28;20038;-69
2020/12/08 13:38:04;;;;;;;14.23;8.20;;;;;;;;;;10235179;28;20042;-67
2020/12/08 13:43:01;;;;;;;15.50;9.43;;;;;;;;;;10240553;28;20041;-65
2020/12/08 13:47:59;;;;;;;10.20;5.57;;;;;;;;;;10217490;28;20080;-68
2020/12/08 13:52:56;;;;;;;12.30;7.67;;;;;;;;;;10205936;28;20038;-67
2020/12/08 13:57:54;;;;;;;15.33;9.13;;;;;;;;;;10236415;28;20416;-68
2020/12/08 14:02:51;;;;;;;17.10;9.80;;;;;;;;;;10233229;28;20042;-66
2020/12/08 14:07:48;;;;;;;14.77;9.00;;;;;;;;;;10225890;28;20073;-67
2020/12/08 14:12:46;;;;;;;14.80;8.70;;;;;;;;;;10243239;28;20129;-67
2020/12/08 14:17:43;;;;;;;14.50;8.73;;;;;;;;;;10216917;28;20034;-68
2020/12/08 14:22:41;;;;;;;16.73;8.57;;;;;;;;;;10235069;28;20563;-68
2020/12/08 14:27:38;;;;;;;15.67;8.90;;;;;;;;;;10203632;28;20034;-64
2020/12/08 14:32:38;;;;;;;17.43;8.50;;;;;;;;;;10231636;28;20064;-65
2020/12/08 14:37:36;;;;;;;17.40;9.57;;;;;;;;;;10234563;28;20129;-67
2020/12/08 14:42:34;;;;;;;18.35;8.68;;;;;;;;;;10235628;28;20121;-67
2020/12/08 14:47:32;;;;;;;15.43;8.63;;;;;;;;;;10230292;28;20030;-66
2020/12/08 14:52:30;;;;;;;15.23;8.93;;;;;;;;;;10218912;28;20030;-67
2020/12/08 14:57:28;;;;;;;10.15;6.25;;;;;;;;;;10209126;28;20042;-67
2020/12/08 15:02:25;;;;;;;19.67;9.13;;;;;;;;;;10224521;28;20040;-67
2020/12/08 15:07:23;;;;;;;14.33;7.53;;;;;;;;;;10211804;28;20449;-67
2020/12/08 15:12:20;;;;;;;10.73;6.30;;;;;;;;;;10228329;28;20030;-66
2020/12/08 15:17:17;;;;;;;11.87;6.60;;;;;;;;;;10221492;28;20030;-69
2020/12/08 15:22:15;;;;;;;9.70;5.43;;;;;;;;;;10227969;28;20065;-66
2020/12/08 15:27:12;;;;;;;12.43;6.57;;;;;;;;;;10229022;28;20507;-68
2020/12/08 15:32:11;;;;;;;13.10;6.30;;;;;;;;;;10214161;28;20121;-66
2020/12/08 15:37:08;;;;;;;7.50;3.90;;;;;;;;;;10223582;28;20385;-66
2020/12/08 15:42:05;;;;;;;12.20;6.37;;;;;;;;;;10245239;28;20042;-66
2020/12/08 15:47:03;;;;;;;14.77;8.57;;;;;;;;;;10233592;28;20404;-66
2020/12/08 15:52:00;;;;;;;15.57;6.33;;;;;;;;;;10215289;28;20030;-67
2020/12/08 15:56:58;;;;;;;12.77;7.17;;;;;;;;;;10224783;28;20104;-66
2020/12/08 16:01:55;;;;;;;7.70;5.30;;;;;;;;;;10226684;28;20034;-67
2020/12/08 16:06:52;;;;;;;11.00;5.53;;;;;;;;;;10238067;28;20030;-67
2020/12/08 16:11:53;;;;;;;10.13;4.63;;;;;;;;;;10236137;28;20042;-66
2020/12/08 16:16:50;;;;;;;7.75;3.85;;;;;;;;;;10229104;28;20622;-69
2020/12/08 16:21:48;;;;;;;8.33;4.60;;;;;;;;;;10238908;28;20140;-67
2020/12/08 16:26:46;;;;;;;5.40;3.53;;;;;;;;;;10226863;28;20038;-67
2020/12/08 16:31:44;;;;;;;10.48;5.50;;;;;;;;;;10223451;28;20495;-68
2020/12/08 16:36:41;;;;;;;5.57;2.77;;;;;;;;;;10222427;28;20031;-65
2020/12/08 16:41:41;;;;;;;5.00;2.43;;;;;;;;;;10225347;28;20042;-67
2020/12/08 16:46:38;;;;;;;16.08;7.95;;;;;;;;;;10222909;28;20023;-67
2020/12/08 16:51:36;;;;;;;4.90;2.47;;;;;;;;;;10231758;28;20026;-68
2020/12/08 16:56:34;;;;;;;9.30;3.95;;;;;;;;;;10228315;28;20607;-67
2020/12/08 17:01:35;;;;;;;7.28;3.90;;;;;;;;;;10208312;28;20480;-67
2020/12/08 17:06:32;;;;;;;1.75;1.63;;;;;;;;;;10231007;28;20717;-67
2020/12/08 17:11:30;;;;;;;8.63;5.07;;;;;;;;;;10221977;28;20034;-68
2020/12/08 17:16:27;;;;;;;12.77;8.43;;;;;;;;;;10226157;28;20049;-68
2020/12/08 17:21:24;;;;;;;10.33;7.03;;;;;;;;;;10224491;28;20424;-68
2020/12/08 17:26:22;;;;;;;21.90;8.97;;;;;;;;;;10219742;28;20416;-67
2020/12/08 17:31:19;;;;;;;20.13;11.43;;;;;;;;;;10234579;28;20029;-68
2020/12/08 17:36:17;;;;;;;31.07;13.13;;;;;;;;;;10235310;28;20048;-67
2020/12/08 17:41:14;;;;;;;34.23;14.43;;;;;;;;;;10239729;28;20472;-68
2020/12/08 17:46:11;;;;;;;20.47;9.70;;;;;;;;;;10236824;28;20065;-68
2020/12/08 17:51:09;;;;;;;24.60;11.43;;;;;;;;;;10239441;28;20044;-69
2020/12/08 17:56:06;;;;;;;26.30;12.50;;;;;;;;;;10220926;28;20534;-68
2020/12/08 18:01:04;;;;;;;27.50;13.63;;;;;;;;;;10224112;28;20046;-68
2020/12/08 18:06:02;;;;;;;36.92;13.30;;;;;;;;;;10233607;28;20285;-67
2020/12/08 18:10:59;;;;;;;21.87;11.57;;;;;;;;;;10237985;28;20030;-68
2020/12/08 18:15:56;;;;;;;40.70;17.17;;;;;;;;;;10218099;28;20459;-68
2020/12/08 18:20:54;;;;;;;17.47;9.87;;;;;;;;;;10218356;28;20399;-68
2020/12/08 18:25:51;;;;;;;42.13;16.97;;;;;;;;;;10194835;28;20037;-69
2020/12/08 18:30:49;;;;;;;20.90;10.77;;;;;;;;;;10223616;28;20091;-67
2020/12/08 18:35:47;;;;;;;29.60;13.87;;;;;;;;;;10235076;28;20033;-68
2020/12/08 18:40:44;;;;;;;26.43;13.77;;;;;;;;;;10235003;28;20041;-69
2020/12/08 18:45:42;;;;;;;29.20;11.27;;;;;;;;;;10234917;28;20304;-67
2020/12/08 18:50:39;;;;;;;28.10;12.00;;;;;;;;;;10237328;28;20496;-68
2020/12/08 18:55:37;;;;;;;38.63;14.33;;;;;;;;;;10223709;28;20064;-69
2020/12/08 19:00:34;;;;;;;25.77;12.53;;;;;;;;;;10234991;28;20515;-65
2020/12/08 19:05:32;;;;;;;26.13;12.20;;;;;;;;;;10217916;28;22223;-67
2020/12/08 19:10:29;;;;;;;32.70;13.23;;;;;;;;;;10213226;28;20411;-67
2020/12/08 19:15:27;;;;;;;32.83;13.50;;;;;;;;;;10228617;28;20042;-67
2020/12/08 19:20:24;;;;;;;32.40;12.57;;;;;;;;;;10209422;28;20054;-68
2020/12/08 19:25:22;;;;;;;31.97;12.53;;;;;;;;;;10229485;28;20091;-66
2020/12/08 19:30:20;;;;;;;28.50;11.70;;;;;;;;;;10227581;28;20037;-65
2020/12/08 19:35:17;;;;;;;23.48;11.38;;;;;;;;;;10212559;28;20030;-68
2020/12/08 19:40:15;;;;;;;40.73;16.50;;;;;;;;;;10224567;28;20062;-66
2020/12/08 19:45:13;;;;;;;23.57;10.03;;;;;;;;;;10233720;28;20042;-66
2020/12/08 19:50:11;;;;;;;24.17;11.47;;;;;;;;;;10218560;28;20035;-66
2020/12/08 19:55:08;;;;;;;34.17;13.45;;;;;;;;;;10232172;28;20137;-67
2020/12/08 20:00:06;;;;;;;35.40;12.07;;;;;;;;;;10228101;28;20717;-66
2020/12/08 20:05:08;;;;;;;29.25;12.48;;;;;;;;;;10235307;28;20138;-66
2020/12/08 20:10:06;;;;;;;25.03;11.23;;;;;;;;;;10231413;28;20126;-66
2020/12/08 20:15:05;;;;;;;24.73;10.63;;;;;;;;;;10228002;28;20038;-67
2020/12/08 20:20:03;;;;;;;25.73;10.55;;;;;;;;;;10221978;28;20031;-66
2020/12/08 20:25:02;;;;;;;34.38;14.73;;;;;;;;;;10228702;28;20039;-66
2020/12/08 20:30:00;;;;;;;25.67;12.48;;;;;;;;;;10218085;28;20038;-67
2020/12/08 20:34:58;;;;;;;35.43;12.47;;;;;;;;;;10230211;28;20053;-67
2020/12/08 20:39:56;;;;;;;26.75;10.20;;;;;;;;;;10222892;28;20034;-67
2020/12/08 20:44:53;;;;;;;20.43;9.87;;;;;;;;;;10230001;28;20510;-67
2020/12/08 20:49:51;;;;;;;38.70;15.97;;;;;;;;;;10234790;28;20038;-65
2020/12/08 20:54:48;;;;;;;28.47;12.63;;;;;;;;;;10237902;28;20121;-66
2020/12/08 20:59:45;;;;;;;25.23;10.67;;;;;;;;;;10234218;28;20649;-67
2020/12/08 21:04:43;;;;;;;27.77;12.17;;;;;;;;;;10232318;28;20042;-66
2020/12/08 21:09:41;;;;;;;25.05;11.82;;;;;;;;;;10225853;28;20034;-65
2020/12/08 21:14:41;;;;;;;27.37;9.70;;;;;;;;;;10244319;28;20038;-67
2020/12/08 21:19:38;;;;;;;28.83;13.57;;;;;;;;;;10247212;28;20057;-66
2020/12/08 21:24:35;;;;;;;33.20;12.67;;;;;;;;;;10228354;28;20033;-66
2020/12/08 21:29:34;;;;;;;37.07;13.53;;;;;;;;;;10229856;28;20044;-67
2020/12/08 21:34:31;;;;;;;27.20;11.20;;;;;;;;;;10241093;28;20523;-66
2020/12/08 21:39:29;;;;;;;18.97;8.27;;;;;;;;;;10221166;28;20042;-66
2020/12/08 21:44:26;;;;;;;36.50;15.17;;;;;;;;;;10243105;28;20030;-66
2020/12/08 21:49:24;;;;;;;38.23;16.50;;;;;;;;;;10230524;28;20266;-67
2020/12/08 21:54:21;;;;;;;46.93;16.80;;;;;;;;;;10236388;28;20042;-67
2020/12/08 21:59:19;;;;;;;25.20;10.17;;;;;;;;;;10222774;28;20073;-66
2020/12/08 22:04:16;;;;;;;37.27;14.40;;;;;;;;;;10227909;28;20116;-66
2020/12/08 22:09:15;;;;;;;33.90;15.88;;;;;;;;;;10238054;28;20480;-66
2020/12/08 22:14:12;;;;;;;34.87;14.63;;;;;;;;;;10244900;28;20117;-67
2020/12/08 22:19:09;;;;;;;12.13;5.07;;;;;;;;;;10220198;28;20424;-66
2020/12/08 22:24:07;;;;;;;32.97;15.17;;;;;;;;;;10232613;28;20030;-66
2020/12/08 22:29:04;;;;;;;35.10;10.00;;;;;;;;;;10230110;28;20034;-67
2020/12/08 22:34:02;;;;;;;24.93;10.10;;;;;;;;;;10241171;28;20114;-66
2020/12/08 22:38:59;;;;;;;29.53;10.13;;;;;;;;;;10220788;28;20040;-65
2020/12/08 22:43:57;;;;;;;28.40;11.07;;;;;;;;;;10239353;28;20029;-65
2020/12/08 22:48:54;;;;;;;30.70;14.03;;;;;;;;;;10231765;28;20499;-66
2020/12/08 22:53:52;;;;;;;44.37;20.60;;;;;;;;;;10235641;28;20030;-65
2020/12/08 22:58:49;;;;;;;36.33;13.27;;;;;;;;;;10228497;28;21125;-66
2020/12/08 23:03:46;;;;;;;13.67;7.47;;;;;;;;;;10239096;28;20070;-67
2020/12/08 23:08:44;;;;;;;20.70;9.23;;;;;;;;;;10237862;28;20038;-68
2020/12/08 23:13:41;;;;;;;35.77;13.53;;;;;;;;;;10231965;28;20458;-68
2020/12/08 23:18:39;;;;;;;37.30;14.40;;;;;;;;;;10225832;28;20830;-68
2020/12/08 23:23:36;;;;;;;29.47;11.57;;;;;;;;;;10243484;28;20411;-68
2020/12/08 23:28:34;;;;;;;21.10;9.87;;;;;;;;;;10233839;28;20049;-67
2020/12/08 23:33:33;;;;;;;31.98;14.30;;;;;;;;;;10224879;28;20037;-69
2020/12/08 23:38:30;;;;;;;21.90;9.53;;;;;;;;;;10221073;28;20034;-66
2020/12/08 23:43:27;;;;;;;32.13;15.60;;;;;;;;;;10224597;28;20133;-67
2020/12/08 23:48:25;;;;;;;35.20;14.13;;;;;;;;;;10238911;28;20042;-65
2020/12/08 23:53:22;;;;;;;22.17;11.33;;;;;;;;;;10236313;28;20173;-66
2020/12/08 23:58:19;;;;;;;28.73;11.17;;;;;;;;;;10211512;28;20038;-66
